createdAt,value
2018-11-22T00:08:30.464Z,39
2018-11-22T00:18:33.877Z,39
2018-11-22T00:28:37.303Z,39
2018-11-22T00:38:40.756Z,39
2018-11-22T00:48:44.209Z,39
2018-11-22T00:58:47.647Z,39
2018-11-22T01:08:51.097Z,39
2018-11-22T01:18:54.540Z,39
2018-11-22T01:28:57.986Z,39
2018-11-22T01:39:01.442Z,40
2018-11-22T01:49:04.879Z,38
2018-11-22T01:59:08.328Z,39
2018-11-22T02:09:11.800Z,39
2018-11-22T02:19:15.310Z,39
2018-11-22T02:29:18.751Z,40
2018-11-22T02:39:22.203Z,39
2018-11-22T02:49:25.658Z,39
2018-11-22T02:59:29.106Z,39
2018-11-22T03:09:32.574Z,39
2018-11-22T03:19:36.022Z,39
2018-11-22T03:29:39.482Z,40
2018-11-22T03:39:42.934Z,40
2018-11-22T03:49:50.754Z,40
2018-11-22T03:59:54.211Z,40
2018-11-22T04:09:57.687Z,40
2018-11-22T04:20:01.151Z,41
2018-11-22T04:30:04.574Z,41
2018-11-22T04:40:08.021Z,41
2018-11-22T04:50:11.464Z,40
2018-11-22T05:00:14.908Z,41
2018-11-22T05:10:18.369Z,41
2018-11-22T05:20:21.837Z,42
2018-11-22T05:30:25.300Z,43
2018-11-22T05:40:28.737Z,43
2018-11-22T05:50:32.161Z,42
2018-11-22T06:00:35.615Z,43
2018-11-22T06:10:39.070Z,43
2018-11-22T06:20:42.520Z,43
2018-11-22T06:30:45.984Z,49
2018-11-22T06:40:49.436Z,42
2018-11-22T06:50:52.906Z,44
2018-11-22T07:00:57.363Z,43
2018-11-22T07:11:00.817Z,42
2018-11-22T07:21:04.287Z,43
2018-11-22T07:31:07.745Z,44
2018-11-22T07:41:11.206Z,42
2018-11-22T07:51:14.678Z,42
2018-11-22T08:01:18.142Z,41
2018-11-22T08:11:21.580Z,41
2018-11-22T08:21:25.078Z,41
2018-11-22T08:31:28.538Z,41
2018-11-22T08:41:31.995Z,42
2018-11-22T08:51:35.439Z,42
2018-11-22T09:01:39.003Z,42
2018-11-22T09:11:42.447Z,42
2018-11-22T09:21:45.899Z,42
2018-11-22T09:31:49.368Z,41
2018-11-22T09:41:52.806Z,41
2018-11-22T09:51:56.241Z,41
2018-11-22T10:01:59.681Z,43
2018-11-22T10:12:03.127Z,41
2018-11-22T10:22:06.582Z,41
2018-11-22T10:32:10.038Z,41
2018-11-22T10:42:13.500Z,41
2018-11-22T10:52:16.933Z,41
2018-11-22T11:02:20.534Z,41
2018-11-22T11:12:25.813Z,42
2018-11-22T11:22:29.238Z,41
2018-11-22T11:32:32.687Z,40
2018-11-22T11:42:36.121Z,41
2018-11-22T11:52:39.536Z,42
2018-11-22T12:02:42.976Z,40
2018-11-22T12:12:46.442Z,41
2018-11-22T12:22:49.873Z,41
2018-11-22T12:32:53.329Z,41
2018-11-22T12:42:56.793Z,40
2018-11-22T12:53:00.227Z,41
2018-11-22T13:03:03.667Z,41
2018-11-22T13:13:07.135Z,41
2018-11-22T13:23:10.603Z,40
2018-11-22T13:33:14.030Z,40
2018-11-22T13:43:17.504Z,40
2018-11-22T13:53:20.959Z,40
2018-11-22T14:03:24.403Z,40
2018-11-22T14:13:27.844Z,40
2018-11-22T14:23:31.290Z,41
2018-11-22T14:33:34.740Z,41
2018-11-22T14:43:38.198Z,41
2018-11-22T14:53:41.655Z,42
2018-11-22T15:03:45.096Z,41
2018-11-22T15:13:48.551Z,41
2018-11-22T15:23:51.999Z,42
2018-11-22T15:33:55.460Z,42
2018-11-22T15:43:58.911Z,43
2018-11-22T15:54:02.377Z,45
2018-11-22T16:04:05.825Z,44
2018-11-22T16:14:09.298Z,46
2018-11-22T16:24:13.154Z,44
2018-11-22T16:34:17.626Z,45
2018-11-22T16:44:21.092Z,44
2018-11-22T16:54:24.529Z,45
2018-11-22T17:04:28.052Z,45
2018-11-22T17:14:31.496Z,44
2018-11-22T17:24:34.941Z,43
2018-11-22T17:34:38.386Z,43
2018-11-22T17:44:41.864Z,45
2018-11-22T17:54:45.316Z,45
2018-11-22T18:04:48.748Z,45
2018-11-22T18:14:52.175Z,45
2018-11-22T18:24:55.625Z,46
2018-11-22T18:34:59.091Z,45
2018-11-22T18:45:02.561Z,46
2018-11-22T18:55:06.031Z,46
2018-11-22T19:05:09.500Z,45
2018-11-22T19:15:12.916Z,44
2018-11-22T19:25:16.364Z,45
2018-11-22T19:35:19.834Z,44
2018-11-22T19:45:23.289Z,48
2018-11-22T19:55:26.751Z,44
2018-11-22T20:05:30.214Z,44
2018-11-22T20:15:33.871Z,44
2018-11-22T20:25:37.336Z,45
2018-11-22T20:35:40.795Z,45
2018-11-22T20:45:44.242Z,47
2018-11-22T20:55:47.704Z,45
2018-11-22T21:05:51.167Z,43
2018-11-22T21:15:54.687Z,43
2018-11-22T21:25:58.128Z,43
2018-11-22T21:36:01.596Z,42
2018-11-22T21:46:05.071Z,44
2018-11-22T21:56:08.513Z,43
2018-11-22T22:06:11.961Z,43
2018-11-22T22:16:15.409Z,43
2018-11-22T22:26:18.869Z,43
2018-11-22T22:36:22.316Z,42
2018-11-22T22:46:25.786Z,42
2018-11-22T22:56:29.250Z,42
2018-11-22T23:06:32.802Z,42
2018-11-22T23:16:36.253Z,41
2018-11-22T23:26:39.705Z,40
2018-11-22T23:36:43.153Z,41
2018-11-22T23:46:46.603Z,40
2018-11-22T23:56:50.065Z,40
